createdAt,value
2022-12-13T00:00:14.972Z,-2.30
2022-12-13T00:05:17.017Z,-2.50
2022-12-13T00:10:18.950Z,-2.50
2022-12-13T00:15:21.651Z,-2.60
2022-12-13T00:20:23.457Z,-2.70
2022-12-13T00:25:25.414Z,-2.70
2022-12-13T00:30:31.603Z,-2.70
2022-12-13T00:35:39.265Z,-2.70
2022-12-13T00:40:41.076Z,-2.70
2022-12-13T00:45:43.185Z,-2.70
2022-12-13T00:50:44.992Z,-2.70
2022-12-13T00:55:46.783Z,-2.70
2022-12-13T01:00:48.646Z,-2.80
2022-12-13T01:06:14.495Z,-2.70
2022-12-13T01:11:13.496Z,-2.80
2022-12-13T01:16:15.882Z,-2.80
2022-12-13T01:21:20.874Z,-2.80
2022-12-13T01:26:24.197Z,-2.80
2022-12-13T01:31:26.339Z,-2.90
2022-12-13T01:36:28.500Z,-2.90
2022-12-13T01:41:32.934Z,-2.90
2022-12-13T01:46:35.981Z,-3.00
2022-12-13T01:51:45.575Z,-3.00
2022-12-13T01:56:51.623Z,-3.00
2022-12-13T02:01:53.640Z,-3.10
2022-12-13T02:07:03.849Z,-3.20
2022-12-13T02:12:05.942Z,-3.20
2022-12-13T02:17:26.346Z,-3.20
2022-12-13T02:22:46.726Z,-3.20
2022-12-13T02:28:30.369Z,-3.10
2022-12-13T02:33:40.281Z,-3.10
2022-12-13T02:38:58.172Z,-3.10
2022-12-13T02:44:22.209Z,-3.10
2022-12-13T02:49:29.914Z,-3.10
2022-12-13T02:54:31.749Z,-3.10
2022-12-13T02:59:39.051Z,-3.00
2022-12-13T03:05:21.418Z,-3.00
2022-12-13T03:10:33.207Z,-3.20
2022-12-13T03:15:43.992Z,-3.10
2022-12-13T03:20:52.067Z,-3.20
2022-12-13T03:25:59.431Z,-3.20
2022-12-13T03:31:01.275Z,-3.20
2022-12-13T03:36:03.391Z,-3.20
2022-12-13T03:41:14.322Z,-3.20
2022-12-13T03:46:16.387Z,-3.20
2022-12-13T03:51:18.227Z,-3.30
2022-12-13T03:56:20.085Z,-3.30
2022-12-13T04:01:23.218Z,-3.30
2022-12-13T04:06:29.835Z,-3.30
2022-12-13T04:11:53.211Z,-3.30
2022-12-13T04:16:54.993Z,-3.30
2022-12-13T04:21:56.794Z,-3.30
2022-12-13T04:26:58.746Z,-3.30
2022-12-13T04:32:04.231Z,-3.30
2022-12-13T04:37:06.355Z,-3.30
2022-12-13T04:42:08.174Z,-3.20
2022-12-13T04:47:10.023Z,-3.20
2022-12-13T04:52:11.843Z,-3.20
2022-12-13T04:57:13.671Z,-3.20
2022-12-13T05:02:23.805Z,-3.30
2022-12-13T05:07:26.700Z,-3.30
2022-12-13T05:12:28.504Z,-3.30
2022-12-13T05:17:30.371Z,-3.30
2022-12-13T05:22:32.369Z,-3.30
2022-12-13T05:27:34.494Z,-3.30
2022-12-13T05:32:43.871Z,-3.30
2022-12-13T05:37:46.687Z,-3.30
2022-12-13T05:43:01.631Z,-3.40
2022-12-13T05:48:03.890Z,-3.50
2022-12-13T05:53:07.604Z,-3.40
2022-12-13T05:58:13.083Z,-3.50
2022-12-13T06:03:15.440Z,-3.50
2022-12-13T06:08:24.519Z,-3.60
2022-12-13T06:13:32.287Z,-3.60
2022-12-13T06:18:35.496Z,-3.60
2022-12-13T06:23:37.451Z,-3.60
2022-12-13T06:28:39.245Z,-3.50
2022-12-13T06:33:41.149Z,-3.60
2022-12-13T06:38:43.383Z,-3.60
2022-12-13T06:43:47.154Z,-3.60
2022-12-13T06:48:49.900Z,-3.60
2022-12-13T06:53:52.782Z,-3.60
2022-12-13T06:59:01.836Z,-3.60
2022-12-13T07:04:04.112Z,-3.60
2022-12-13T07:09:05.930Z,-3.60
2022-12-13T07:14:07.760Z,-3.50
2022-12-13T07:19:22.395Z,-3.50
2022-12-13T07:24:25.114Z,-3.50
2022-12-13T07:29:26.919Z,-3.50
2022-12-13T07:34:29.528Z,-3.50
2022-12-13T07:39:32.310Z,-3.50
2022-12-13T07:44:34.119Z,-3.40
2022-12-13T07:49:35.965Z,-3.40
2022-12-13T07:54:37.806Z,-3.20
2022-12-13T07:59:39.640Z,-3.30
2022-12-13T08:04:43.149Z,-3.30
2022-12-13T08:09:51.031Z,-3.10
2022-12-13T08:14:55.223Z,-3.10
2022-12-13T08:19:57.141Z,-3.20
2022-12-13T08:24:58.977Z,-3.10
2022-12-13T08:30:00.784Z,-2.90
2022-12-13T08:35:02.630Z,-2.90
2022-12-13T08:40:06.328Z,-2.80
2022-12-13T08:45:08.882Z,-2.70
2022-12-13T08:50:10.707Z,-2.80
2022-12-13T08:55:15.171Z,-2.80
2022-12-13T09:00:19.303Z,-2.50
2022-12-13T09:05:33.744Z,-2.40
2022-12-13T09:10:38.035Z,-2.40
2022-12-13T09:15:46.047Z,-2.60
2022-12-13T09:20:48.184Z,-2.50
2022-12-13T09:25:56.294Z,-2.30
2022-12-13T09:31:09.397Z,-2.40
2022-12-13T09:36:12.835Z,-2.10
2022-12-13T09:41:28.824Z,-2.10
2022-12-13T09:46:44.885Z,-2.20
2022-12-13T09:52:21.336Z,-2.20
2022-12-13T09:57:32.177Z,-2.30
2022-12-13T10:02:42.930Z,-2.30
2022-12-13T10:07:44.851Z,-2.20
2022-12-13T10:12:52.091Z,-2.50
2022-12-13T10:17:55.315Z,-2.60
2022-12-13T10:28:27.326Z,-2.60
2022-12-13T10:33:32.049Z,-2.60
2022-12-13T10:38:40.088Z,-2.60
2022-12-13T10:43:41.918Z,-2.40
2022-12-13T10:48:52.423Z,-2.30
2022-12-13T10:53:58.100Z,-2.30
2022-12-13T11:06:18.030Z,-1.70
2022-12-13T11:11:28.938Z,-1.10
2022-12-13T11:16:34.735Z,-0.60
2022-12-13T11:21:39.189Z,-0.60
2022-12-13T11:26:47.828Z,-1.20
2022-12-13T11:32:13.121Z,-1.60
2022-12-13T11:37:42.137Z,-1.60
2022-12-13T11:43:08.561Z,-2.10
2022-12-13T11:48:10.345Z,-2.00
2022-12-13T11:53:41.029Z,-1.80
2022-12-13T11:59:20.740Z,-1.90
2022-12-13T12:04:55.042Z,-1.90
2022-12-13T12:10:13.686Z,-2.10
2022-12-13T12:15:29.449Z,-1.90
2022-12-13T12:20:43.612Z,-2.00
2022-12-13T12:26:01.257Z,-2.30
2022-12-13T12:31:31.594Z,-2.30
2022-12-13T12:37:04.831Z,-2.10
2022-12-13T12:42:27.356Z,-2.10
2022-12-13T12:48:46.230Z,-1.90
2022-12-13T12:53:33.638Z,-2.10
2022-12-13T12:58:44.503Z,-2.00
2022-12-13T13:03:49.959Z,-2.10
2022-12-13T13:09:08.175Z,-2.10
2022-12-13T13:14:34.839Z,-2.10
2022-12-13T13:19:40.669Z,-2.20
2022-12-13T13:24:42.568Z,-2.30
2022-12-13T13:29:44.698Z,-2.40
2022-12-13T13:34:48.901Z,-2.40
2022-12-13T13:40:31.124Z,-2.60
2022-12-13T13:45:54.425Z,-2.70
2022-12-13T13:51:14.183Z,-3.00
2022-12-13T13:56:34.591Z,-2.90
2022-12-13T14:02:13.551Z,-2.80
2022-12-13T14:07:38.163Z,-3.00
2022-12-13T14:12:58.292Z,-3.10
2022-12-13T14:18:23.112Z,-3.00
2022-12-13T14:23:53.279Z,-3.00
2022-12-13T14:28:58.503Z,-2.90
2022-12-13T14:34:01.492Z,-2.90
2022-12-13T14:39:06.962Z,-3.00
2022-12-13T14:44:33.820Z,-3.10
2022-12-13T14:49:42.035Z,-3.10
2022-12-13T14:54:59.643Z,-3.30
2022-12-13T15:00:21.137Z,-3.30
2022-12-13T15:05:34.276Z,-3.40
2022-12-13T15:10:48.505Z,-3.40
2022-12-13T15:15:58.380Z,-3.50
2022-12-13T15:21:01.467Z,-3.60
2022-12-13T15:26:28.034Z,-3.50
2022-12-13T15:31:35.663Z,-3.60
2022-12-13T15:36:39.165Z,-3.60
2022-12-13T15:41:49.467Z,-3.60
2022-12-13T15:46:54.083Z,-3.60
2022-12-13T15:52:00.212Z,-3.80
2022-12-13T15:57:29.039Z,-3.80
2022-12-13T16:02:31.939Z,-3.90
2022-12-13T16:07:38.222Z,-3.90
2022-12-13T16:12:47.886Z,-3.90
2022-12-13T16:18:19.137Z,-4.00
2022-12-13T16:23:26.608Z,-3.90
2022-12-13T16:28:30.160Z,-4.00
2022-12-13T16:33:33.070Z,-4.00
2022-12-13T16:38:35.648Z,-4.00
2022-12-13T16:43:53.827Z,-4.00
2022-12-13T16:48:56.303Z,-4.10
2022-12-13T16:53:58.587Z,-4.10
2022-12-13T16:59:00.974Z,-4.20
2022-12-13T17:04:12.831Z,-4.10
2022-12-13T17:09:19.473Z,-4.10
2022-12-13T17:14:22.512Z,-4.00
2022-12-13T17:19:25.771Z,-4.00
2022-12-13T17:24:30.832Z,-4.00
2022-12-13T17:29:37.098Z,-4.00
2022-12-13T17:34:40.099Z,-4.10
2022-12-13T17:39:44.272Z,-4.30
2022-12-13T17:44:47.380Z,-4.20
2022-12-13T17:49:50.538Z,-4.10
2022-12-13T17:54:53.075Z,-4.10
2022-12-13T17:59:55.622Z,-4.10
2022-12-13T18:04:57.922Z,-4.10
2022-12-13T18:10:00.203Z,-4.20
2022-12-13T18:15:03.039Z,-4.20
2022-12-13T18:20:06.337Z,-4.20
2022-12-13T18:25:09.207Z,-4.20
2022-12-13T18:30:12.853Z,-4.10
2022-12-13T18:35:15.841Z,-4.20
2022-12-13T18:40:18.967Z,-4.20
2022-12-13T18:45:21.866Z,-4.30
2022-12-13T18:50:24.845Z,-4.30
2022-12-13T18:55:28.587Z,-4.30
2022-12-13T19:00:31.987Z,-4.50
2022-12-13T19:05:35.683Z,-4.50
2022-12-13T19:10:38.720Z,-4.60
2022-12-13T19:15:42.054Z,-4.60
2022-12-13T19:20:49.331Z,-4.60
2022-12-13T19:25:53.437Z,-4.40
2022-12-13T19:30:56.256Z,-4.50
2022-12-13T19:35:59.255Z,-4.30
2022-12-13T19:41:11.166Z,-4.40
2022-12-13T19:46:14.546Z,-4.60
2022-12-13T19:51:18.162Z,-4.80
2022-12-13T19:56:22.325Z,-4.80
2022-12-13T20:01:25.345Z,-5.10
2022-12-13T20:06:28.534Z,-5.30
2022-12-13T20:11:32.448Z,-5.20
2022-12-13T20:16:35.665Z,-5.30
2022-12-13T20:21:38.845Z,-5.40
2022-12-13T20:26:41.760Z,-5.50
2022-12-13T20:31:48.558Z,-5.60
2022-12-13T20:36:52.043Z,-5.30
2022-12-13T20:41:55.074Z,-5.30
2022-12-13T20:46:58.463Z,-5.50
2022-12-13T20:52:01.686Z,-5.60
2022-12-13T20:57:04.388Z,-5.30
2022-12-13T21:02:07.218Z,-5.30
2022-12-13T21:07:09.650Z,-5.40
2022-12-13T21:12:12.242Z,-5.70
2022-12-13T21:17:14.760Z,-5.80
2022-12-13T21:22:17.347Z,-5.80
2022-12-13T21:27:20.222Z,-6.10
2022-12-13T21:32:23.053Z,-6.40
2022-12-13T21:37:26.658Z,-6.80
2022-12-13T21:42:30.077Z,-6.80
2022-12-13T21:47:33.793Z,-7.10
2022-12-13T21:52:37.686Z,-7.30
2022-12-13T21:58:04.496Z,-7.30
2022-12-13T22:03:12.801Z,-7.60
2022-12-13T22:08:16.112Z,-8.10
2022-12-13T22:13:19.319Z,-8.50
2022-12-13T22:18:22.722Z,-8.70
2022-12-13T22:23:26.245Z,-8.50
2022-12-13T22:28:30.140Z,-8.70
2022-12-13T22:33:34.090Z,-9.10
2022-12-13T22:38:37.606Z,-9.20
2022-12-13T22:43:40.728Z,-9.40
2022-12-13T22:48:47.722Z,-9.50
2022-12-13T22:53:51.071Z,-9.60
2022-12-13T22:58:56.395Z,-9.70
2022-12-13T23:04:00.501Z,-9.70
2022-12-13T23:09:09.545Z,-9.80
2022-12-13T23:14:15.506Z,-9.90
2022-12-13T23:24:41.171Z,-10.00
2022-12-13T23:29:43.993Z,-9.80
2022-12-13T23:34:45.820Z,-9.50
2022-12-13T23:39:47.661Z,-9.40
2022-12-13T23:44:49.518Z,-9.50
2022-12-13T23:49:51.405Z,-9.20
2022-12-13T23:54:53.186Z,-9.20
2022-12-13T23:59:54.966Z,-9.20
